sensor_id;sensor_type;location;lat;lon;timestamp;P1;durP1;ratioP1;P2;durP2;ratioP2
2061;SDS011;11070;51.336;12.340;2023-08-08T00:01:06;4.87;;;3.30;;
2061;SDS011;11070;51.336;12.340;2023-08-08T00:03:32;4.03;;;3.40;;
2061;SDS011;11070;51.336;12.340;2023-08-08T00:05:59;4.15;;;2.90;;
2061;SDS011;11070;51.336;12.340;2023-08-08T00:08:25;3.53;;;2.90;;
2061;SDS011;11070;51.336;12.340;2023-08-08T00:10:50;5.77;;;3.70;;
2061;SDS011;11070;51.336;12.340;2023-08-08T00:13:16;4.27;;;3.07;;
2061;SDS011;11070;51.336;12.340;2023-08-08T00:15:42;5.57;;;3.37;;
2061;SDS011;11070;51.336;12.340;2023-08-08T00:18:08;3.53;;;3.23;;
2061;SDS011;11070;51.336;12.340;2023-08-08T00:20:33;4.55;;;3.30;;
2061;SDS011;11070;51.336;12.340;2023-08-08T00:22:59;3.33;;;2.93;;
2061;SDS011;11070;51.336;12.340;2023-08-08T00:25:25;4.33;;;3.23;;
2061;SDS011;11070;51.336;12.340;2023-08-08T00:27:50;3.40;;;3.10;;
2061;SDS011;11070;51.336;12.340;2023-08-08T00:30:16;3.53;;;3.23;;
2061;SDS011;11070;51.336;12.340;2023-08-08T00:32:42;5.23;;;3.10;;
2061;SDS011;11070;51.336;12.340;2023-08-08T00:35:08;3.20;;;2.90;;
2061;SDS011;11070;51.336;12.340;2023-08-08T00:37:34;5.60;;;3.22;;
2061;SDS011;11070;51.336;12.340;2023-08-08T00:39:59;5.03;;;3.70;;
2061;SDS011;11070;51.336;12.340;2023-08-08T00:42:25;4.03;;;3.13;;
2061;SDS011;11070;51.336;12.340;2023-08-08T00:44:51;5.63;;;3.37;;
2061;SDS011;11070;51.336;12.340;2023-08-08T00:47:16;3.77;;;3.33;;
2061;SDS011;11070;51.336;12.340;2023-08-08T00:49:42;5.60;;;3.57;;
2061;SDS011;11070;51.336;12.340;2023-08-08T00:52:11;7.18;;;3.47;;
2061;SDS011;11070;51.336;12.340;2023-08-08T00:54:37;3.53;;;3.23;;
2061;SDS011;11070;51.336;12.340;2023-08-08T00:57:03;3.30;;;2.97;;
2061;SDS011;11070;51.336;12.340;2023-08-08T00:59:29;4.15;;;3.00;;
2061;SDS011;11070;51.336;12.340;2023-08-08T01:01:55;5.25;;;3.00;;
2061;SDS011;11070;51.336;12.340;2023-08-08T01:04:22;4.47;;;3.53;;
2061;SDS011;11070;51.336;12.340;2023-08-08T01:06:52;5.07;;;2.88;;
2061;SDS011;11070;51.336;12.340;2023-08-08T01:09:28;6.75;;;3.70;;
2061;SDS011;11070;51.336;12.340;2023-08-08T01:11:59;3.40;;;2.92;;
2061;SDS011;11070;51.336;12.340;2023-08-08T01:14:26;5.80;;;4.10;;
2061;SDS011;11070;51.336;12.340;2023-08-08T01:16:54;5.50;;;3.40;;
2061;SDS011;11070;51.336;12.340;2023-08-08T01:19:27;4.35;;;3.80;;
2061;SDS011;11070;51.336;12.340;2023-08-08T01:21:54;3.90;;;3.22;;
2061;SDS011;11070;51.336;12.340;2023-08-08T01:24:26;3.72;;;3.42;;
2061;SDS011;11070;51.336;12.340;2023-08-08T01:26:54;3.60;;;3.30;;
2061;SDS011;11070;51.336;12.340;2023-08-08T01:29:21;3.40;;;3.10;;
2061;SDS011;11070;51.336;12.340;2023-08-08T01:31:47;6.00;;;3.40;;
2061;SDS011;11070;51.336;12.340;2023-08-08T01:34:12;3.70;;;3.17;;
2061;SDS011;11070;51.336;12.340;2023-08-08T01:36:42;7.13;;;3.67;;
2061;SDS011;11070;51.336;12.340;2023-08-08T01:39:27;4.32;;;3.35;;
2061;SDS011;11070;51.336;12.340;2023-08-08T01:41:55;5.57;;;3.47;;
2061;SDS011;11070;51.336;12.340;2023-08-08T01:44:23;5.03;;;3.67;;
2061;SDS011;11070;51.336;12.340;2023-08-08T01:46:51;7.15;;;3.15;;
2061;SDS011;11070;51.336;12.340;2023-08-08T01:49:18;4.05;;;3.42;;
2061;SDS011;11070;51.336;12.340;2023-08-08T01:51:43;4.40;;;3.10;;
2061;SDS011;11070;51.336;12.340;2023-08-08T01:54:09;7.63;;;3.30;;
2061;SDS011;11070;51.336;12.340;2023-08-08T01:56:35;7.03;;;3.33;;
2061;SDS011;11070;51.336;12.340;2023-08-08T01:59:01;8.00;;;3.23;;
2061;SDS011;11070;51.336;12.340;2023-08-08T02:01:26;3.83;;;3.27;;
2061;SDS011;11070;51.336;12.340;2023-08-08T02:03:52;3.97;;;3.57;;
2061;SDS011;11070;51.336;12.340;2023-08-08T02:06:18;3.33;;;3.03;;
2061;SDS011;11070;51.336;12.340;2023-08-08T02:08:44;6.30;;;3.07;;
2061;SDS011;11070;51.336;12.340;2023-08-08T02:11:11;3.80;;;3.35;;
2061;SDS011;11070;51.336;12.340;2023-08-08T02:13:36;4.03;;;3.00;;
2061;SDS011;11070;51.336;12.340;2023-08-08T02:16:02;5.40;;;3.60;;
2061;SDS011;11070;51.336;12.340;2023-08-08T02:18:28;3.87;;;3.47;;
2061;SDS011;11070;51.336;12.340;2023-08-08T02:20:53;7.13;;;3.57;;
2061;SDS011;11070;51.336;12.340;2023-08-08T02:23:19;3.97;;;2.90;;
2061;SDS011;11070;51.336;12.340;2023-08-08T02:25:44;4.00;;;3.20;;
2061;SDS011;11070;51.336;12.340;2023-08-08T02:28:10;3.30;;;3.00;;
2061;SDS011;11070;51.336;12.340;2023-08-08T02:30:36;3.77;;;2.90;;
2061;SDS011;11070;51.336;12.340;2023-08-08T02:33:02;4.15;;;3.65;;
2061;SDS011;11070;51.336;12.340;2023-08-08T02:35:27;4.10;;;3.33;;
2061;SDS011;11070;51.336;12.340;2023-08-08T02:37:54;4.45;;;3.10;;
2061;SDS011;11070;51.336;12.340;2023-08-08T02:40:21;2.75;;;2.55;;
2061;SDS011;11070;51.336;12.340;2023-08-08T02:42:48;3.42;;;3.10;;
2061;SDS011;11070;51.336;12.340;2023-08-08T02:45:14;3.13;;;2.90;;
2061;SDS011;11070;51.336;12.340;2023-08-08T02:47:40;3.20;;;3.00;;
2061;SDS011;11070;51.336;12.340;2023-08-08T02:50:06;3.70;;;3.00;;
2061;SDS011;11070;51.336;12.340;2023-08-08T02:52:32;3.03;;;2.80;;
2061;SDS011;11070;51.336;12.340;2023-08-08T02:54:58;3.80;;;3.10;;
2061;SDS011;11070;51.336;12.340;2023-08-08T02:57:23;4.77;;;3.00;;
2061;SDS011;11070;51.336;12.340;2023-08-08T02:59:49;4.30;;;3.10;;
2061;SDS011;11070;51.336;12.340;2023-08-08T03:02:15;3.33;;;3.03;;
2061;SDS011;11070;51.336;12.340;2023-08-08T03:04:40;3.67;;;3.17;;
2061;SDS011;11070;51.336;12.340;2023-08-08T03:07:06;3.83;;;2.90;;
2061;SDS011;11070;51.336;12.340;2023-08-08T03:09:32;3.20;;;2.90;;
2061;SDS011;11070;51.336;12.340;2023-08-08T03:11:57;8.07;;;3.27;;
2061;SDS011;11070;51.336;12.340;2023-08-08T03:14:23;3.53;;;3.20;;
2061;SDS011;11070;51.336;12.340;2023-08-08T03:16:49;3.10;;;2.90;;
2061;SDS011;11070;51.336;12.340;2023-08-08T03:19:14;3.50;;;2.97;;
2061;SDS011;11070;51.336;12.340;2023-08-08T03:21:40;6.13;;;3.33;;
2061;SDS011;11070;51.336;12.340;2023-08-08T03:24:06;3.67;;;3.37;;
2061;SDS011;11070;51.336;12.340;2023-08-08T03:26:31;3.40;;;3.10;;
2061;SDS011;11070;51.336;12.340;2023-08-08T03:28:57;7.60;;;3.50;;
2061;SDS011;11070;51.336;12.340;2023-08-08T03:31:22;3.50;;;3.20;;
2061;SDS011;11070;51.336;12.340;2023-08-08T03:33:49;5.20;;;3.40;;
2061;SDS011;11070;51.336;12.340;2023-08-08T03:36:15;4.23;;;3.60;;
2061;SDS011;11070;51.336;12.340;2023-08-08T03:38:40;4.50;;;3.50;;
2061;SDS011;11070;51.336;12.340;2023-08-08T03:41:10;5.43;;;3.15;;
2061;SDS011;11070;51.336;12.340;2023-08-08T03:43:37;4.00;;;3.63;;
2061;SDS011;11070;51.336;12.340;2023-08-08T03:46:03;3.92;;;3.55;;
2061;SDS011;11070;51.336;12.340;2023-08-08T03:48:29;3.80;;;3.20;;
2061;SDS011;11070;51.336;12.340;2023-08-08T03:50:54;4.57;;;3.43;;
2061;SDS011;11070;51.336;12.340;2023-08-08T03:53:20;3.60;;;3.30;;
2061;SDS011;11070;51.336;12.340;2023-08-08T03:55:45;3.90;;;3.50;;
2061;SDS011;11070;51.336;12.340;2023-08-08T03:58:11;3.97;;;3.20;;
2061;SDS011;11070;51.336;12.340;2023-08-08T04:00:37;4.03;;;3.70;;
2061;SDS011;11070;51.336;12.340;2023-08-08T04:03:04;6.47;;;3.70;;
2061;SDS011;11070;51.336;12.340;2023-08-08T04:05:30;4.40;;;3.90;;
2061;SDS011;11070;51.336;12.340;2023-08-08T04:07:56;4.03;;;3.40;;
2061;SDS011;11070;51.336;12.340;2023-08-08T04:10:21;6.87;;;3.57;;
2061;SDS011;11070;51.336;12.340;2023-08-08T04:12:47;6.53;;;3.30;;
2061;SDS011;11070;51.336;12.340;2023-08-08T04:15:13;4.57;;;3.70;;
2061;SDS011;11070;51.336;12.340;2023-08-08T04:17:38;4.90;;;3.60;;
2061;SDS011;11070;51.336;12.340;2023-08-08T04:20:04;3.10;;;2.90;;
2061;SDS011;11070;51.336;12.340;2023-08-08T04:22:31;4.28;;;3.28;;
2061;SDS011;11070;51.336;12.340;2023-08-08T04:24:57;3.50;;;3.20;;
2061;SDS011;11070;51.336;12.340;2023-08-08T04:27:22;3.50;;;2.97;;
2061;SDS011;11070;51.336;12.340;2023-08-08T04:29:48;4.77;;;3.30;;
2061;SDS011;11070;51.336;12.340;2023-08-08T04:32:14;3.80;;;3.50;;
2061;SDS011;11070;51.336;12.340;2023-08-08T04:34:39;3.43;;;3.00;;
2061;SDS011;11070;51.336;12.340;2023-08-08T04:37:05;3.47;;;3.17;;
2061;SDS011;11070;51.336;12.340;2023-08-08T04:39:31;3.83;;;2.90;;
2061;SDS011;11070;51.336;12.340;2023-08-08T04:41:56;3.53;;;3.23;;
2061;SDS011;11070;51.336;12.340;2023-08-08T04:44:22;3.27;;;2.97;;
2061;SDS011;11070;51.336;12.340;2023-08-08T04:46:48;15.67;;;3.40;;
2061;SDS011;11070;51.336;12.340;2023-08-08T04:49:13;3.53;;;3.23;;
2061;SDS011;11070;51.336;12.340;2023-08-08T04:51:39;3.43;;;3.13;;
2061;SDS011;11070;51.336;12.340;2023-08-08T04:54:04;3.70;;;3.40;;
2061;SDS011;11070;51.336;12.340;2023-08-08T04:56:30;3.80;;;2.83;;
2061;SDS011;11070;51.336;12.340;2023-08-08T04:58:56;4.30;;;2.97;;
2061;SDS011;11070;51.336;12.340;2023-08-08T05:01:21;3.87;;;2.90;;
2061;SDS011;11070;51.336;12.340;2023-08-08T05:03:47;3.13;;;2.93;;
2061;SDS011;11070;51.336;12.340;2023-08-08T05:06:13;4.83;;;3.00;;
2061;SDS011;11070;51.336;12.340;2023-08-08T05:08:39;2.90;;;2.70;;
2061;SDS011;11070;51.336;12.340;2023-08-08T05:11:04;3.63;;;3.10;;
2061;SDS011;11070;51.336;12.340;2023-08-08T05:13:30;4.03;;;2.90;;
2061;SDS011;11070;51.336;12.340;2023-08-08T05:15:56;3.00;;;2.80;;
2061;SDS011;11070;51.336;12.340;2023-08-08T05:18:22;2.70;;;2.60;;
2061;SDS011;11070;51.336;12.340;2023-08-08T05:20:47;3.37;;;3.07;;
2061;SDS011;11070;51.336;12.340;2023-08-08T05:23:13;2.50;;;2.40;;
2061;SDS011;11070;51.336;12.340;2023-08-08T05:25:39;3.73;;;3.33;;
2061;SDS011;11070;51.336;12.340;2023-08-08T05:28:05;3.95;;;2.78;;
2061;SDS011;11070;51.336;12.340;2023-08-08T05:30:31;3.30;;;2.87;;
2061;SDS011;11070;51.336;12.340;2023-08-08T05:32:57;2.93;;;2.70;;
2061;SDS011;11070;51.336;12.340;2023-08-08T05:35:22;3.20;;;3.00;;
2061;SDS011;11070;51.336;12.340;2023-08-08T05:37:48;3.17;;;2.77;;
2061;SDS011;11070;51.336;12.340;2023-08-08T05:40:14;5.60;;;2.90;;
2061;SDS011;11070;51.336;12.340;2023-08-08T05:42:39;2.80;;;2.60;;
2061;SDS011;11070;51.336;12.340;2023-08-08T05:45:05;3.67;;;3.37;;
2061;SDS011;11070;51.336;12.340;2023-08-08T05:47:32;4.22;;;2.60;;
2061;SDS011;11070;51.336;12.340;2023-08-08T05:49:58;4.35;;;2.47;;
2061;SDS011;11070;51.336;12.340;2023-08-08T05:52:23;3.23;;;2.63;;
2061;SDS011;11070;51.336;12.340;2023-08-08T05:54:49;3.60;;;2.83;;
2061;SDS011;11070;51.336;12.340;2023-08-08T05:57:15;3.23;;;2.60;;
2061;SDS011;11070;51.336;12.340;2023-08-08T05:59:40;3.73;;;2.77;;
2061;SDS011;11070;51.336;12.340;2023-08-08T06:02:06;2.63;;;2.43;;
2061;SDS011;11070;51.336;12.340;2023-08-08T06:04:32;3.67;;;2.37;;
2061;SDS011;11070;51.336;12.340;2023-08-08T06:06:57;2.70;;;2.50;;
2061;SDS011;11070;51.336;12.340;2023-08-08T06:09:24;2.77;;;2.57;;
2061;SDS011;11070;51.336;12.340;2023-08-08T06:11:50;3.95;;;2.80;;
2061;SDS011;11070;51.336;12.340;2023-08-08T06:14:15;2.27;;;2.17;;
2061;SDS011;11070;51.336;12.340;2023-08-08T06:16:42;4.03;;;2.25;;
2061;SDS011;11070;51.336;12.340;2023-08-08T06:19:07;2.60;;;2.40;;
2061;SDS011;11070;51.336;12.340;2023-08-08T06:21:34;2.60;;;2.40;;
2061;SDS011;11070;51.336;12.340;2023-08-08T06:24:00;3.05;;;2.42;;
2061;SDS011;11070;51.336;12.340;2023-08-08T06:26:26;2.57;;;2.33;;
2061;SDS011;11070;51.336;12.340;2023-08-08T06:28:52;3.00;;;2.50;;
2061;SDS011;11070;51.336;12.340;2023-08-08T06:31:18;2.90;;;2.60;;
2061;SDS011;11070;51.336;12.340;2023-08-08T06:33:44;2.53;;;2.30;;
2061;SDS011;11070;51.336;12.340;2023-08-08T06:36:10;2.33;;;2.13;;
2061;SDS011;11070;51.336;12.340;2023-08-08T06:38:35;2.60;;;2.40;;
2061;SDS011;11070;51.336;12.340;2023-08-08T06:41:04;2.50;;;2.40;;
2061;SDS011;11070;51.336;12.340;2023-08-08T06:43:30;2.72;;;2.50;;
2061;SDS011;11070;51.336;12.340;2023-08-08T06:45:56;3.05;;;2.38;;
2061;SDS011;11070;51.336;12.340;2023-08-08T06:48:22;2.75;;;2.55;;
2061;SDS011;11070;51.336;12.340;2023-08-08T06:50:48;2.60;;;2.40;;
2061;SDS011;11070;51.336;12.340;2023-08-08T06:53:14;2.50;;;2.33;;
2061;SDS011;11070;51.336;12.340;2023-08-08T06:55:40;4.97;;;2.85;;
2061;SDS011;11070;51.336;12.340;2023-08-08T06:58:06;3.10;;;2.60;;
2061;SDS011;11070;51.336;12.340;2023-08-08T07:00:32;5.93;;;2.77;;
2061;SDS011;11070;51.336;12.340;2023-08-08T07:02:57;3.30;;;2.90;;
2061;SDS011;11070;51.336;12.340;2023-08-08T07:05:23;4.97;;;3.30;;
2061;SDS011;11070;51.336;12.340;2023-08-08T07:07:49;3.10;;;2.80;;
2061;SDS011;11070;51.336;12.340;2023-08-08T07:10:15;3.30;;;3.10;;
2061;SDS011;11070;51.336;12.340;2023-08-08T07:12:41;3.07;;;2.80;;
2061;SDS011;11070;51.336;12.340;2023-08-08T07:15:07;2.70;;;2.47;;
2061;SDS011;11070;51.336;12.340;2023-08-08T07:17:33;4.75;;;2.90;;
2061;SDS011;11070;51.336;12.340;2023-08-08T07:19:59;2.73;;;2.50;;
2061;SDS011;11070;51.336;12.340;2023-08-08T07:22:25;2.90;;;2.60;;
2061;SDS011;11070;51.336;12.340;2023-08-08T07:24:51;3.23;;;2.30;;
2061;SDS011;11070;51.336;12.340;2023-08-08T07:27:16;2.57;;;2.37;;
2061;SDS011;11070;51.336;12.340;2023-08-08T07:29:42;5.33;;;3.03;;
2061;SDS011;11070;51.336;12.340;2023-08-08T07:32:08;2.90;;;2.50;;
2061;SDS011;11070;51.336;12.340;2023-08-08T07:34:34;4.73;;;2.87;;
2061;SDS011;11070;51.336;12.340;2023-08-08T07:37:00;2.90;;;2.70;;
2061;SDS011;11070;51.336;12.340;2023-08-08T07:39:26;4.85;;;2.85;;
2061;SDS011;11070;51.336;12.340;2023-08-08T07:41:52;2.67;;;2.47;;
2061;SDS011;11070;51.336;12.340;2023-08-08T07:44:18;3.00;;;2.75;;
2061;SDS011;11070;51.336;12.340;2023-08-08T07:46:44;4.30;;;2.70;;
2061;SDS011;11070;51.336;12.340;2023-08-08T07:49:09;2.80;;;2.53;;
2061;SDS011;11070;51.336;12.340;2023-08-08T07:51:35;3.10;;;2.90;;
2061;SDS011;11070;51.336;12.340;2023-08-08T07:54:01;3.10;;;2.90;;
2061;SDS011;11070;51.336;12.340;2023-08-08T07:56:27;3.30;;;3.08;;
2061;SDS011;11070;51.336;12.340;2023-08-08T07:58:53;3.33;;;3.05;;
2061;SDS011;11070;51.336;12.340;2023-08-08T08:01:19;3.00;;;2.80;;
2061;SDS011;11070;51.336;12.340;2023-08-08T08:03:44;3.00;;;2.80;;
2061;SDS011;11070;51.336;12.340;2023-08-08T08:06:10;3.30;;;3.00;;
2061;SDS011;11070;51.336;12.340;2023-08-08T08:08:37;3.10;;;2.90;;
2061;SDS011;11070;51.336;12.340;2023-08-08T08:11:02;3.03;;;2.80;;
2061;SDS011;11070;51.336;12.340;2023-08-08T08:13:29;3.22;;;2.92;;
2061;SDS011;11070;51.336;12.340;2023-08-08T08:15:55;3.20;;;2.90;;
2061;SDS011;11070;51.336;12.340;2023-08-08T08:18:20;2.77;;;2.57;;
2061;SDS011;11070;51.336;12.340;2023-08-08T08:20:46;3.73;;;2.77;;
2061;SDS011;11070;51.336;12.340;2023-08-08T08:23:13;3.10;;;2.90;;
2061;SDS011;11070;51.336;12.340;2023-08-08T08:25:39;3.00;;;2.80;;
2061;SDS011;11070;51.336;12.340;2023-08-08T08:28:05;2.83;;;2.63;;
2061;SDS011;11070;51.336;12.340;2023-08-08T08:30:31;2.90;;;2.70;;
2061;SDS011;11070;51.336;12.340;2023-08-08T08:32:56;2.67;;;2.40;;
2061;SDS011;11070;51.336;12.340;2023-08-08T08:35:22;3.07;;;2.83;;
2061;SDS011;11070;51.336;12.340;2023-08-08T08:37:48;3.13;;;2.87;;
2061;SDS011;11070;51.336;12.340;2023-08-08T08:40:14;3.10;;;2.90;;
2061;SDS011;11070;51.336;12.340;2023-08-08T08:42:40;3.30;;;3.00;;
2061;SDS011;11070;51.336;12.340;2023-08-08T08:45:08;5.53;;;3.40;;
2061;SDS011;11070;51.336;12.340;2023-08-08T08:47:35;3.22;;;2.92;;
2061;SDS011;11070;51.336;12.340;2023-08-08T08:50:02;4.30;;;3.40;;
2061;SDS011;11070;51.336;12.340;2023-08-08T08:52:29;4.68;;;3.10;;
2061;SDS011;11070;51.336;12.340;2023-08-08T08:54:55;4.60;;;3.00;;
2061;SDS011;11070;51.336;12.340;2023-08-08T08:57:22;3.38;;;2.60;;
2061;SDS011;11070;51.336;12.340;2023-08-08T08:59:51;3.15;;;2.95;;
2061;SDS011;11070;51.336;12.340;2023-08-08T09:02:20;3.95;;;3.40;;
2061;SDS011;11070;51.336;12.340;2023-08-08T09:04:46;3.25;;;3.05;;
2061;SDS011;11070;51.336;12.340;2023-08-08T09:07:12;3.40;;;3.10;;
2061;SDS011;11070;51.336;12.340;2023-08-08T09:09:42;5.78;;;3.55;;
2061;SDS011;11070;51.336;12.340;2023-08-08T09:12:08;4.05;;;3.03;;
2061;SDS011;11070;51.336;12.340;2023-08-08T09:14:34;3.23;;;2.93;;
2061;SDS011;11070;51.336;12.340;2023-08-08T09:17:04;3.40;;;3.10;;
2061;SDS011;11070;51.336;12.340;2023-08-08T09:19:38;2.90;;;2.70;;
2061;SDS011;11070;51.336;12.340;2023-08-08T09:22:09;2.70;;;2.60;;
2061;SDS011;11070;51.336;12.340;2023-08-08T09:24:37;3.53;;;3.30;;
2061;SDS011;11070;51.336;12.340;2023-08-08T09:27:05;3.83;;;3.35;;
2061;SDS011;11070;51.336;12.340;2023-08-08T09:29:32;3.65;;;3.38;;
2061;SDS011;11070;51.336;12.340;2023-08-08T09:31:58;3.13;;;2.83;;
2061;SDS011;11070;51.336;12.340;2023-08-08T09:34:24;4.10;;;3.20;;
2061;SDS011;11070;51.336;12.340;2023-08-08T09:36:51;3.28;;;3.05;;
2061;SDS011;11070;51.336;12.340;2023-08-08T09:39:17;4.72;;;3.35;;
2061;SDS011;11070;51.336;12.340;2023-08-08T09:41:45;3.93;;;3.20;;
2061;SDS011;11070;51.336;12.340;2023-08-08T09:44:11;3.08;;;2.78;;
2061;SDS011;11070;51.336;12.340;2023-08-08T09:46:37;3.90;;;2.87;;
2061;SDS011;11070;51.336;12.340;2023-08-08T09:49:03;3.13;;;2.92;;
2061;SDS011;11070;51.336;12.340;2023-08-08T09:51:30;2.70;;;2.50;;
2061;SDS011;11070;51.336;12.340;2023-08-08T09:53:58;3.70;;;2.88;;
2061;SDS011;11070;51.336;12.340;2023-08-08T09:56:25;3.00;;;2.67;;
2061;SDS011;11070;51.336;12.340;2023-08-08T09:58:51;2.65;;;2.45;;
2061;SDS011;11070;51.336;12.340;2023-08-08T10:01:18;3.05;;;2.65;;
2061;SDS011;11070;51.336;12.340;2023-08-08T10:03:45;2.90;;;2.70;;
2061;SDS011;11070;51.336;12.340;2023-08-08T10:06:11;2.23;;;2.13;;
2061;SDS011;11070;51.336;12.340;2023-08-08T10:08:38;2.60;;;2.40;;
2061;SDS011;11070;51.336;12.340;2023-08-08T10:11:05;3.30;;;3.00;;
2061;SDS011;11070;51.336;12.340;2023-08-08T10:13:34;3.03;;;2.60;;
2061;SDS011;11070;51.336;12.340;2023-08-08T10:16:03;2.47;;;2.30;;
2061;SDS011;11070;51.336;12.340;2023-08-08T10:18:32;2.45;;;2.25;;
2061;SDS011;11070;51.336;12.340;2023-08-08T10:20:58;2.23;;;2.13;;
2061;SDS011;11070;51.336;12.340;2023-08-08T10:23:24;3.10;;;2.80;;
2061;SDS011;11070;51.336;12.340;2023-08-08T10:25:50;2.83;;;2.60;;
2061;SDS011;11070;51.336;12.340;2023-08-08T10:28:18;2.50;;;2.30;;
2061;SDS011;11070;51.336;12.340;2023-08-08T10:33:16;2.75;;;2.55;;
2061;SDS011;11070;51.336;12.340;2023-08-08T10:38:21;2.45;;;2.35;;
2061;SDS011;11070;51.336;12.340;2023-08-08T10:40:55;3.25;;;2.20;;
2061;SDS011;11070;51.336;12.340;2023-08-08T10:43:25;3.55;;;2.30;;
2061;SDS011;11070;51.336;12.340;2023-08-08T10:45:53;3.88;;;2.63;;
2061;SDS011;11070;51.336;12.340;2023-08-08T10:48:26;2.95;;;2.60;;
2061;SDS011;11070;51.336;12.340;2023-08-08T10:50:53;3.63;;;2.70;;
2061;SDS011;11070;51.336;12.340;2023-08-08T10:53:30;2.50;;;2.40;;
2061;SDS011;11070;51.336;12.340;2023-08-08T10:55:56;3.88;;;2.70;;
2061;SDS011;11070;51.336;12.340;2023-08-08T10:58:34;2.90;;;2.70;;
2061;SDS011;11070;51.336;12.340;2023-08-08T11:01:00;2.70;;;2.50;;
2061;SDS011;11070;51.336;12.340;2023-08-08T11:03:26;5.27;;;2.70;;
2061;SDS011;11070;51.336;12.340;2023-08-08T11:05:54;3.58;;;3.00;;
2061;SDS011;11070;51.336;12.340;2023-08-08T11:08:20;5.30;;;2.80;;
2061;SDS011;11070;51.336;12.340;2023-08-08T11:10:50;3.25;;;2.90;;
2061;SDS011;11070;51.336;12.340;2023-08-08T11:13:19;3.00;;;2.60;;
2061;SDS011;11070;51.336;12.340;2023-08-08T11:15:45;6.45;;;4.00;;
2061;SDS011;11070;51.336;12.340;2023-08-08T11:18:11;4.70;;;3.10;;
2061;SDS011;11070;51.336;12.340;2023-08-08T11:20:38;2.80;;;2.60;;
2061;SDS011;11070;51.336;12.340;2023-08-08T11:23:04;2.85;;;2.58;;
2061;SDS011;11070;51.336;12.340;2023-08-08T11:25:35;2.92;;;2.67;;
2061;SDS011;11070;51.336;12.340;2023-08-08T11:28:01;3.10;;;2.53;;
2061;SDS011;11070;51.336;12.340;2023-08-08T11:30:29;2.85;;;2.60;;
2061;SDS011;11070;51.336;12.340;2023-08-08T11:32:57;3.10;;;2.90;;
2061;SDS011;11070;51.336;12.340;2023-08-08T11:35:27;2.75;;;2.55;;
2061;SDS011;11070;51.336;12.340;2023-08-08T11:37:54;3.03;;;2.80;;
2061;SDS011;11070;51.336;12.340;2023-08-08T11:40:25;2.50;;;2.40;;
2061;SDS011;11070;51.336;12.340;2023-08-08T11:42:53;2.42;;;2.22;;
2061;SDS011;11070;51.336;12.340;2023-08-08T11:45:19;2.70;;;2.40;;
2061;SDS011;11070;51.336;12.340;2023-08-08T11:47:48;2.30;;;2.10;;
2061;SDS011;11070;51.336;12.340;2023-08-08T11:50:14;7.63;;;2.72;;
2061;SDS011;11070;51.336;12.340;2023-08-08T11:52:41;3.23;;;2.93;;
2061;SDS011;11070;51.336;12.340;2023-08-08T11:55:08;5.65;;;2.45;;
2061;SDS011;11070;51.336;12.340;2023-08-08T11:57:35;3.17;;;2.50;;
2061;SDS011;11070;51.336;12.340;2023-08-08T12:00:05;2.50;;;2.10;;
2061;SDS011;11070;51.336;12.340;2023-08-08T12:02:33;3.42;;;2.63;;
2061;SDS011;11070;51.336;12.340;2023-08-08T12:05:06;2.47;;;2.28;;
2061;SDS011;11070;51.336;12.340;2023-08-08T12:07:35;2.92;;;2.70;;
2061;SDS011;11070;51.336;12.340;2023-08-08T12:10:05;2.53;;;2.33;;
2061;SDS011;11070;51.336;12.340;2023-08-08T12:12:39;2.67;;;2.40;;
2061;SDS011;11070;51.336;12.340;2023-08-08T12:15:08;2.53;;;2.33;;
2061;SDS011;11070;51.336;12.340;2023-08-08T12:17:35;2.60;;;2.50;;
2061;SDS011;11070;51.336;12.340;2023-08-08T12:20:05;2.85;;;2.63;;
2061;SDS011;11070;51.336;12.340;2023-08-08T12:22:35;3.10;;;2.90;;
2061;SDS011;11070;51.336;12.340;2023-08-08T12:25:01;3.08;;;2.35;;
2061;SDS011;11070;51.336;12.340;2023-08-08T12:27:28;3.03;;;2.40;;
2061;SDS011;11070;51.336;12.340;2023-08-08T12:29:54;2.78;;;2.58;;
2061;SDS011;11070;51.336;12.340;2023-08-08T12:32:20;2.63;;;2.53;;
2061;SDS011;11070;51.336;12.340;2023-08-08T12:34:49;2.33;;;2.23;;
2061;SDS011;11070;51.336;12.340;2023-08-08T12:37:16;2.60;;;2.40;;
2061;SDS011;11070;51.336;12.340;2023-08-08T12:39:42;3.78;;;2.30;;
2061;SDS011;11070;51.336;12.340;2023-08-08T12:42:08;2.27;;;2.07;;
2061;SDS011;11070;51.336;12.340;2023-08-08T12:44:34;1.90;;;1.70;;
2061;SDS011;11070;51.336;12.340;2023-08-08T12:46:59;2.67;;;2.47;;
2061;SDS011;11070;51.336;12.340;2023-08-08T12:49:25;2.60;;;2.50;;
2061;SDS011;11070;51.336;12.340;2023-08-08T12:51:51;2.77;;;2.50;;
2061;SDS011;11070;51.336;12.340;2023-08-08T12:54:20;2.40;;;2.30;;
2061;SDS011;11070;51.336;12.340;2023-08-08T12:56:46;3.58;;;2.08;;
2061;SDS011;11070;51.336;12.340;2023-08-08T12:59:12;2.37;;;2.17;;
2061;SDS011;11070;51.336;12.340;2023-08-08T13:01:37;3.53;;;2.23;;
2061;SDS011;11070;51.336;12.340;2023-08-08T13:04:03;7.53;;;2.50;;
2061;SDS011;11070;51.336;12.340;2023-08-08T13:06:29;2.80;;;2.60;;
2061;SDS011;11070;51.336;12.340;2023-08-08T13:08:55;6.32;;;2.70;;
2061;SDS011;11070;51.336;12.340;2023-08-08T13:11:21;2.30;;;2.10;;
2061;SDS011;11070;51.336;12.340;2023-08-08T13:13:47;2.60;;;2.40;;
2061;SDS011;11070;51.336;12.340;2023-08-08T13:16:13;2.67;;;2.47;;
2061;SDS011;11070;51.336;12.340;2023-08-08T13:18:39;3.03;;;2.73;;
2061;SDS011;11070;51.336;12.340;2023-08-08T13:21:04;4.05;;;2.50;;
2061;SDS011;11070;51.336;12.340;2023-08-08T13:23:31;2.50;;;2.30;;
2061;SDS011;11070;51.336;12.340;2023-08-08T13:25:57;4.10;;;2.87;;
2061;SDS011;11070;51.336;12.340;2023-08-08T13:28:23;3.63;;;2.80;;
2061;SDS011;11070;51.336;12.340;2023-08-08T13:30:48;2.97;;;2.77;;
2061;SDS011;11070;51.336;12.340;2023-08-08T13:33:14;3.70;;;2.80;;
2061;SDS011;11070;51.336;12.340;2023-08-08T13:35:40;5.10;;;2.83;;
2061;SDS011;11070;51.336;12.340;2023-08-08T13:38:05;3.17;;;2.97;;
2061;SDS011;11070;51.336;12.340;2023-08-08T13:40:33;3.38;;;3.17;;
2061;SDS011;11070;51.336;12.340;2023-08-08T13:42:58;3.30;;;3.10;;
2061;SDS011;11070;51.336;12.340;2023-08-08T13:45:24;4.40;;;3.37;;
2061;SDS011;11070;51.336;12.340;2023-08-08T13:47:50;3.10;;;2.70;;
2061;SDS011;11070;51.336;12.340;2023-08-08T13:50:15;3.77;;;2.80;;
2061;SDS011;11070;51.336;12.340;2023-08-08T13:52:41;3.00;;;2.80;;
2061;SDS011;11070;51.336;12.340;2023-08-08T13:55:08;2.95;;;2.75;;
2061;SDS011;11070;51.336;12.340;2023-08-08T13:57:34;4.05;;;3.75;;
2061;SDS011;11070;51.336;12.340;2023-08-08T14:00:00;3.13;;;2.92;;
2061;SDS011;11070;51.336;12.340;2023-08-08T14:02:26;3.00;;;2.80;;
2061;SDS011;11070;51.336;12.340;2023-08-08T14:04:51;3.13;;;2.57;;
2061;SDS011;11070;51.336;12.340;2023-08-08T14:07:18;3.63;;;2.90;;
2061;SDS011;11070;51.336;12.340;2023-08-08T14:09:43;6.10;;;2.72;;
2061;SDS011;11070;51.336;12.340;2023-08-08T14:12:09;3.83;;;3.43;;
2061;SDS011;11070;51.336;12.340;2023-08-08T14:14:35;2.93;;;2.73;;
2061;SDS011;11070;51.336;12.340;2023-08-08T14:17:01;3.00;;;2.80;;
2061;SDS011;11070;51.336;12.340;2023-08-08T14:19:26;3.07;;;2.77;;
2061;SDS011;11070;51.336;12.340;2023-08-08T14:21:52;3.60;;;3.30;;
2061;SDS011;11070;51.336;12.340;2023-08-08T14:24:18;3.93;;;3.63;;
2061;SDS011;11070;51.336;12.340;2023-08-08T14:26:44;4.23;;;3.80;;
2061;SDS011;11070;51.336;12.340;2023-08-08T14:29:10;4.22;;;3.75;;
2061;SDS011;11070;51.336;12.340;2023-08-08T14:31:36;5.90;;;3.70;;
2061;SDS011;11070;51.336;12.340;2023-08-08T14:34:02;5.00;;;4.40;;
2061;SDS011;11070;51.336;12.340;2023-08-08T14:36:28;7.82;;;4.57;;
2061;SDS011;11070;51.336;12.340;2023-08-08T14:38:54;5.20;;;4.37;;
2061;SDS011;11070;51.336;12.340;2023-08-08T14:41:20;5.03;;;4.67;;
2061;SDS011;11070;51.336;12.340;2023-08-08T14:43:46;5.72;;;4.70;;
2061;SDS011;11070;51.336;12.340;2023-08-08T14:46:11;4.57;;;4.17;;
2061;SDS011;11070;51.336;12.340;2023-08-08T14:48:37;5.57;;;4.80;;